sensor_id;sensor_type;location;lat;lon;timestamp;temperature;humidity
3705;DHT22;1868;48.918;9.438;2023-04-25T00:00:02;9.50;97.40
3705;DHT22;1868;48.918;9.438;2023-04-25T00:02:37;9.50;97.40
3705;DHT22;1868;48.918;9.438;2023-04-25T00:05:13;9.50;97.40
3705;DHT22;1868;48.918;9.438;2023-04-25T00:07:44;9.50;97.40
3705;DHT22;1868;48.918;9.438;2023-04-25T00:10:13;9.50;97.40
3705;DHT22;1868;48.918;9.438;2023-04-25T00:12:43;9.40;97.40
3705;DHT22;1868;48.918;9.438;2023-04-25T00:15:15;9.40;97.40
3705;DHT22;1868;48.918;9.438;2023-04-25T00:17:48;9.30;97.40
3705;DHT22;1868;48.918;9.438;2023-04-25T00:20:20;9.20;97.40
3705;DHT22;1868;48.918;9.438;2023-04-25T00:22:52;9.20;97.40
3705;DHT22;1868;48.918;9.438;2023-04-25T00:25:22;9.20;97.40
3705;DHT22;1868;48.918;9.438;2023-04-25T00:28:01;9.10;97.40
3705;DHT22;1868;48.918;9.438;2023-04-25T00:30:30;9.10;97.40
3705;DHT22;1868;48.918;9.438;2023-04-25T00:32:59;9.10;97.40
3705;DHT22;1868;48.918;9.438;2023-04-25T00:35:28;9.00;97.40
3705;DHT22;1868;48.918;9.438;2023-04-25T00:37:57;9.00;97.40
3705;DHT22;1868;48.918;9.438;2023-04-25T00:40:28;9.00;97.40
3705;DHT22;1868;48.918;9.438;2023-04-25T00:43:04;9.00;97.40
3705;DHT22;1868;48.918;9.438;2023-04-25T00:45:38;9.00;97.40
3705;DHT22;1868;48.918;9.438;2023-04-25T00:48:09;9.00;97.40
3705;DHT22;1868;48.918;9.438;2023-04-25T00:50:38;8.90;97.40
3705;DHT22;1868;48.918;9.438;2023-04-25T00:53:07;8.90;97.40
3705;DHT22;1868;48.918;9.438;2023-04-25T00:55:37;8.90;97.40
3705;DHT22;1868;48.918;9.438;2023-04-25T00:58:08;8.90;97.40
3705;DHT22;1868;48.918;9.438;2023-04-25T01:00:38;8.80;97.40
3705;DHT22;1868;48.918;9.438;2023-04-25T01:03:08;8.80;97.40
3705;DHT22;1868;48.918;9.438;2023-04-25T01:05:37;8.80;97.40
3705;DHT22;1868;48.918;9.438;2023-04-25T01:08:09;8.80;97.40
3705;DHT22;1868;48.918;9.438;2023-04-25T01:10:38;8.70;97.40
3705;DHT22;1868;48.918;9.438;2023-04-25T01:13:12;8.70;97.40
3705;DHT22;1868;48.918;9.438;2023-04-25T01:15:43;8.70;97.40
3705;DHT22;1868;48.918;9.438;2023-04-25T01:18:14;8.70;97.40
3705;DHT22;1868;48.918;9.438;2023-04-25T01:20:44;8.70;97.40
3705;DHT22;1868;48.918;9.438;2023-04-25T01:23:15;8.70;97.40
3705;DHT22;1868;48.918;9.438;2023-04-25T01:25:47;8.70;97.40
3705;DHT22;1868;48.918;9.438;2023-04-25T01:28:18;8.70;97.40
3705;DHT22;1868;48.918;9.438;2023-04-25T01:30:51;8.70;97.40
3705;DHT22;1868;48.918;9.438;2023-04-25T01:33:22;8.70;97.40
3705;DHT22;1868;48.918;9.438;2023-04-25T01:35:55;8.70;97.40
3705;DHT22;1868;48.918;9.438;2023-04-25T01:38:29;8.70;97.40
3705;DHT22;1868;48.918;9.438;2023-04-25T01:41:00;8.70;97.40
3705;DHT22;1868;48.918;9.438;2023-04-25T01:43:29;8.60;97.40
3705;DHT22;1868;48.918;9.438;2023-04-25T01:45:58;8.60;97.40
3705;DHT22;1868;48.918;9.438;2023-04-25T01:48:30;8.60;97.40
3705;DHT22;1868;48.918;9.438;2023-04-25T01:51:00;8.60;97.40
3705;DHT22;1868;48.918;9.438;2023-04-25T01:53:31;8.60;97.40
3705;DHT22;1868;48.918;9.438;2023-04-25T01:56:05;8.60;97.40
3705;DHT22;1868;48.918;9.438;2023-04-25T01:58:35;8.50;97.40
3705;DHT22;1868;48.918;9.438;2023-04-25T02:01:26;8.60;97.40
3705;DHT22;1868;48.918;9.438;2023-04-25T02:04:15;8.50;97.40
3705;DHT22;1868;48.918;9.438;2023-04-25T02:06:44;8.40;97.40
3705;DHT22;1868;48.918;9.438;2023-04-25T02:09:16;8.40;97.40
3705;DHT22;1868;48.918;9.438;2023-04-25T02:11:51;8.30;97.40
3705;DHT22;1868;48.918;9.438;2023-04-25T02:14:35;8.30;97.40
3705;DHT22;1868;48.918;9.438;2023-04-25T02:17:17;8.20;97.40
3705;DHT22;1868;48.918;9.438;2023-04-25T02:19:48;8.20;97.40
3705;DHT22;1868;48.918;9.438;2023-04-25T02:22:19;8.20;97.40
3705;DHT22;1868;48.918;9.438;2023-04-25T02:24:53;8.10;97.40
3705;DHT22;1868;48.918;9.438;2023-04-25T02:27:24;8.10;97.40
3705;DHT22;1868;48.918;9.438;2023-04-25T02:29:56;8.10;97.40
3705;DHT22;1868;48.918;9.438;2023-04-25T02:32:25;8.00;97.40
3705;DHT22;1868;48.918;9.438;2023-04-25T02:34:54;8.00;97.40
3705;DHT22;1868;48.918;9.438;2023-04-25T02:37:26;8.00;97.40
3705;DHT22;1868;48.918;9.438;2023-04-25T02:39:56;8.00;97.40
3705;DHT22;1868;48.918;9.438;2023-04-25T02:42:28;8.00;97.40
3705;DHT22;1868;48.918;9.438;2023-04-25T02:44:59;8.10;97.40
3705;DHT22;1868;48.918;9.438;2023-04-25T02:47:30;8.10;97.40
3705;DHT22;1868;48.918;9.438;2023-04-25T02:50:02;8.10;97.40
3705;DHT22;1868;48.918;9.438;2023-04-25T02:52:32;8.10;97.40
3705;DHT22;1868;48.918;9.438;2023-04-25T02:55:12;8.10;97.40
3705;DHT22;1868;48.918;9.438;2023-04-25T02:57:47;8.10;97.40
3705;DHT22;1868;48.918;9.438;2023-04-25T03:00:27;8.20;97.40
3705;DHT22;1868;48.918;9.438;2023-04-25T03:02:58;8.20;97.40
3705;DHT22;1868;48.918;9.438;2023-04-25T03:05:27;8.20;97.40
3705;DHT22;1868;48.918;9.438;2023-04-25T03:07:59;8.20;97.40
3705;DHT22;1868;48.918;9.438;2023-04-25T03:10:30;8.20;97.40
3705;DHT22;1868;48.918;9.438;2023-04-25T03:13:04;8.30;97.40
3705;DHT22;1868;48.918;9.438;2023-04-25T03:15:35;8.40;97.40
3705;DHT22;1868;48.918;9.438;2023-04-25T03:18:06;8.40;97.40
3705;DHT22;1868;48.918;9.438;2023-04-25T03:20:39;8.40;97.40
3705;DHT22;1868;48.918;9.438;2023-04-25T03:23:10;8.40;97.40
3705;DHT22;1868;48.918;9.438;2023-04-25T03:25:43;8.40;97.40
3705;DHT22;1868;48.918;9.438;2023-04-25T03:28:13;8.40;97.40
3705;DHT22;1868;48.918;9.438;2023-04-25T03:30:42;8.40;97.40
3705;DHT22;1868;48.918;9.438;2023-04-25T03:33:11;8.40;97.40
3705;DHT22;1868;48.918;9.438;2023-04-25T03:35:44;8.40;97.40
3705;DHT22;1868;48.918;9.438;2023-04-25T03:38:13;8.40;97.40
3705;DHT22;1868;48.918;9.438;2023-04-25T03:40:46;8.40;97.40
3705;DHT22;1868;48.918;9.438;2023-04-25T03:43:22;8.30;97.40
3705;DHT22;1868;48.918;9.438;2023-04-25T03:46:00;8.30;97.40
3705;DHT22;1868;48.918;9.438;2023-04-25T03:48:32;8.30;97.40
3705;DHT22;1868;48.918;9.438;2023-04-25T03:51:02;8.30;97.40
3705;DHT22;1868;48.918;9.438;2023-04-25T03:53:35;8.30;97.40
3705;DHT22;1868;48.918;9.438;2023-04-25T03:56:20;8.30;97.40
3705;DHT22;1868;48.918;9.438;2023-04-25T03:59:02;8.30;97.40
3705;DHT22;1868;48.918;9.438;2023-04-25T04:01:31;8.40;97.40
3705;DHT22;1868;48.918;9.438;2023-04-25T04:04:03;8.40;97.40
3705;DHT22;1868;48.918;9.438;2023-04-25T04:06:33;8.40;97.40
3705;DHT22;1868;48.918;9.438;2023-04-25T04:09:13;8.40;97.40
3705;DHT22;1868;48.918;9.438;2023-04-25T04:11:47;8.40;97.40
3705;DHT22;1868;48.918;9.438;2023-04-25T04:14:17;8.40;97.40
3705;DHT22;1868;48.918;9.438;2023-04-25T04:16:50;8.50;97.40
3705;DHT22;1868;48.918;9.438;2023-04-25T04:19:28;8.50;97.40
3705;DHT22;1868;48.918;9.438;2023-04-25T04:22:07;8.50;97.40
3705;DHT22;1868;48.918;9.438;2023-04-25T04:24:39;8.50;97.40
3705;DHT22;1868;48.918;9.438;2023-04-25T04:27:17;8.60;97.40
3705;DHT22;1868;48.918;9.438;2023-04-25T04:29:59;8.60;97.40
3705;DHT22;1868;48.918;9.438;2023-04-25T04:32:36;8.60;97.40
3705;DHT22;1868;48.918;9.438;2023-04-25T04:35:08;8.60;97.40
3705;DHT22;1868;48.918;9.438;2023-04-25T04:37:40;8.60;97.40
3705;DHT22;1868;48.918;9.438;2023-04-25T04:40:14;8.60;97.40
3705;DHT22;1868;48.918;9.438;2023-04-25T04:42:56;8.50;97.40
3705;DHT22;1868;48.918;9.438;2023-04-25T04:45:46;8.50;97.40
3705;DHT22;1868;48.918;9.438;2023-04-25T04:48:20;8.50;97.40
3705;DHT22;1868;48.918;9.438;2023-04-25T04:51:01;8.60;97.40
3705;DHT22;1868;48.918;9.438;2023-04-25T04:53:47;8.60;97.40
3705;DHT22;1868;48.918;9.438;2023-04-25T04:56:36;8.60;97.40
3705;DHT22;1868;48.918;9.438;2023-04-25T04:59:39;8.70;97.40
3705;DHT22;1868;48.918;9.438;2023-04-25T05:02:34;8.70;97.40
3705;DHT22;1868;48.918;9.438;2023-04-25T05:05:28;8.70;97.40
3705;DHT22;1868;48.918;9.438;2023-04-25T05:08:17;8.80;97.40
3705;DHT22;1868;48.918;9.438;2023-04-25T05:11:05;8.90;97.40
3705;DHT22;1868;48.918;9.438;2023-04-25T05:13:56;9.10;97.40
3705;DHT22;1868;48.918;9.438;2023-04-25T05:16:44;9.10;97.40
3705;DHT22;1868;48.918;9.438;2023-04-25T05:19:42;9.20;97.40
3705;DHT22;1868;48.918;9.438;2023-04-25T05:22:33;9.30;97.40
3705;DHT22;1868;48.918;9.438;2023-04-25T05:25:26;9.40;97.40
3705;DHT22;1868;48.918;9.438;2023-04-25T05:28:12;9.50;97.40
3705;DHT22;1868;48.918;9.438;2023-04-25T05:30:57;9.60;97.40
3705;DHT22;1868;48.918;9.438;2023-04-25T05:33:32;9.60;97.40
3705;DHT22;1868;48.918;9.438;2023-04-25T05:36:02;9.50;97.40
3705;DHT22;1868;48.918;9.438;2023-04-25T05:38:33;9.50;97.40
3705;DHT22;1868;48.918;9.438;2023-04-25T05:41:08;9.50;97.40
3705;DHT22;1868;48.918;9.438;2023-04-25T05:43:52;9.50;97.40
3705;DHT22;1868;48.918;9.438;2023-04-25T05:46:34;9.60;97.40
3705;DHT22;1868;48.918;9.438;2023-04-25T05:49:32;9.70;97.40
3705;DHT22;1868;48.918;9.438;2023-04-25T05:52:24;9.70;97.40
3705;DHT22;1868;48.918;9.438;2023-04-25T05:55:08;9.80;97.40
3705;DHT22;1868;48.918;9.438;2023-04-25T05:57:40;9.80;97.40
3705;DHT22;1868;48.918;9.438;2023-04-25T06:00:14;9.80;97.40
3705;DHT22;1868;48.918;9.438;2023-04-25T06:02:47;9.90;97.40
3705;DHT22;1868;48.918;9.438;2023-04-25T06:05:20;9.90;97.40
3705;DHT22;1868;48.918;9.438;2023-04-25T06:07:52;9.90;97.40
3705;DHT22;1868;48.918;9.438;2023-04-25T06:10:22;10.00;97.40
3705;DHT22;1868;48.918;9.438;2023-04-25T06:12:51;10.00;97.40
3705;DHT22;1868;48.918;9.438;2023-04-25T06:15:21;9.90;97.40
3705;DHT22;1868;48.918;9.438;2023-04-25T06:17:56;9.90;97.40
3705;DHT22;1868;48.918;9.438;2023-04-25T06:20:29;9.90;97.40
3705;DHT22;1868;48.918;9.438;2023-04-25T06:23:01;9.90;97.40
3705;DHT22;1868;48.918;9.438;2023-04-25T06:25:55;9.80;97.40
3705;DHT22;1868;48.918;9.438;2023-04-25T06:28:26;9.80;97.40
3705;DHT22;1868;48.918;9.438;2023-04-25T06:30:56;9.80;97.40
3705;DHT22;1868;48.918;9.438;2023-04-25T06:33:29;9.90;97.40
3705;DHT22;1868;48.918;9.438;2023-04-25T06:36:00;10.00;97.40
3705;DHT22;1868;48.918;9.438;2023-04-25T06:38:30;10.20;97.40
3705;DHT22;1868;48.918;9.438;2023-04-25T06:41:02;10.60;97.40
3705;DHT22;1868;48.918;9.438;2023-04-25T06:43:35;10.90;97.40
3705;DHT22;1868;48.918;9.438;2023-04-25T06:46:24;11.00;97.40
3705;DHT22;1868;48.918;9.438;2023-04-25T06:48:54;11.20;97.40
3705;DHT22;1868;48.918;9.438;2023-04-25T06:51:26;11.30;97.40
3705;DHT22;1868;48.918;9.438;2023-04-25T06:53:59;11.60;97.40
3705;DHT22;1868;48.918;9.438;2023-04-25T06:56:35;11.80;97.40
3705;DHT22;1868;48.918;9.438;2023-04-25T06:59:11;11.90;97.40
3705;DHT22;1868;48.918;9.438;2023-04-25T07:01:41;12.00;97.40
3705;DHT22;1868;48.918;9.438;2023-04-25T07:04:18;12.10;97.40
3705;DHT22;1868;48.918;9.438;2023-04-25T07:06:56;12.20;97.40
3705;DHT22;1868;48.918;9.438;2023-04-25T07:09:41;12.30;97.40
3705;DHT22;1868;48.918;9.438;2023-04-25T07:12:11;12.30;97.40
3705;DHT22;1868;48.918;9.438;2023-04-25T07:14:40;12.30;97.40
3705;DHT22;1868;48.918;9.438;2023-04-25T07:17:11;12.20;97.40
3705;DHT22;1868;48.918;9.438;2023-04-25T07:19:41;12.10;97.40
3705;DHT22;1868;48.918;9.438;2023-04-25T07:22:13;12.10;97.40
3705;DHT22;1868;48.918;9.438;2023-04-25T07:24:42;12.10;97.40
3705;DHT22;1868;48.918;9.438;2023-04-25T07:27:18;12.20;97.40
3705;DHT22;1868;48.918;9.438;2023-04-25T07:29:55;12.20;97.40
3705;DHT22;1868;48.918;9.438;2023-04-25T07:32:25;12.20;97.40
3705;DHT22;1868;48.918;9.438;2023-04-25T07:34:55;12.30;97.40
3705;DHT22;1868;48.918;9.438;2023-04-25T07:37:27;12.30;97.40
3705;DHT22;1868;48.918;9.438;2023-04-25T07:40:12;12.30;97.40
3705;DHT22;1868;48.918;9.438;2023-04-25T07:42:48;12.40;97.40
3705;DHT22;1868;48.918;9.438;2023-04-25T07:45:29;12.40;97.40
3705;DHT22;1868;48.918;9.438;2023-04-25T07:48:02;12.40;97.40
3705;DHT22;1868;48.918;9.438;2023-04-25T07:50:34;12.30;97.40
3705;DHT22;1868;48.918;9.438;2023-04-25T07:53:05;12.20;97.40
3705;DHT22;1868;48.918;9.438;2023-04-25T07:55:43;12.20;97.40
3705;DHT22;1868;48.918;9.438;2023-04-25T07:58:16;12.10;97.40
3705;DHT22;1868;48.918;9.438;2023-04-25T08:00:53;12.00;97.40
3705;DHT22;1868;48.918;9.438;2023-04-25T08:03:45;11.80;97.40
3705;DHT22;1868;48.918;9.438;2023-04-25T08:06:26;11.60;97.40
3705;DHT22;1868;48.918;9.438;2023-04-25T08:09:20;11.60;97.40
3705;DHT22;1868;48.918;9.438;2023-04-25T08:11:54;11.50;97.40
3705;DHT22;1868;48.918;9.438;2023-04-25T08:14:30;11.40;97.40
3705;DHT22;1868;48.918;9.438;2023-04-25T08:17:07;11.10;97.40
3705;DHT22;1868;48.918;9.438;2023-04-25T08:19:40;10.80;97.40
3705;DHT22;1868;48.918;9.438;2023-04-25T08:22:17;10.70;97.40
3705;DHT22;1868;48.918;9.438;2023-04-25T08:24:59;10.50;97.40
3705;DHT22;1868;48.918;9.438;2023-04-25T08:27:28;10.60;97.40
3705;DHT22;1868;48.918;9.438;2023-04-25T08:29:57;10.40;97.40
3705;DHT22;1868;48.918;9.438;2023-04-25T08:32:32;10.50;97.40
3705;DHT22;1868;48.918;9.438;2023-04-25T08:35:22;10.50;97.40
3705;DHT22;1868;48.918;9.438;2023-04-25T08:37:52;10.60;97.40
3705;DHT22;1868;48.918;9.438;2023-04-25T08:40:27;10.70;97.40
3705;DHT22;1868;48.918;9.438;2023-04-25T08:43:13;10.80;97.40
3705;DHT22;1868;48.918;9.438;2023-04-25T08:45:45;11.00;97.40
3705;DHT22;1868;48.918;9.438;2023-04-25T08:48:31;11.10;97.40
3705;DHT22;1868;48.918;9.438;2023-04-25T08:51:06;11.30;97.40
3705;DHT22;1868;48.918;9.438;2023-04-25T08:53:39;11.30;97.40
3705;DHT22;1868;48.918;9.438;2023-04-25T08:56:16;11.50;97.40
3705;DHT22;1868;48.918;9.438;2023-04-25T08:58:49;11.70;97.40
3705;DHT22;1868;48.918;9.438;2023-04-25T09:01:19;11.80;97.40
3705;DHT22;1868;48.918;9.438;2023-04-25T09:03:53;11.90;97.40
3705;DHT22;1868;48.918;9.438;2023-04-25T09:06:24;11.90;97.40
3705;DHT22;1868;48.918;9.438;2023-04-25T09:08:55;11.90;97.40
3705;DHT22;1868;48.918;9.438;2023-04-25T09:11:34;11.90;97.40
3705;DHT22;1868;48.918;9.438;2023-04-25T09:14:13;12.00;97.40
3705;DHT22;1868;48.918;9.438;2023-04-25T09:17:23;12.00;97.40
3705;DHT22;1868;48.918;9.438;2023-04-25T09:20:05;12.10;97.40
3705;DHT22;1868;48.918;9.438;2023-04-25T09:22:37;12.10;97.40
3705;DHT22;1868;48.918;9.438;2023-04-25T09:25:13;12.20;97.40
3705;DHT22;1868;48.918;9.438;2023-04-25T09:27:54;12.10;97.40
3705;DHT22;1868;48.918;9.438;2023-04-25T09:30:31;12.10;97.40
3705;DHT22;1868;48.918;9.438;2023-04-25T09:33:11;12.20;97.40
3705;DHT22;1868;48.918;9.438;2023-04-25T09:35:48;12.30;97.40
3705;DHT22;1868;48.918;9.438;2023-04-25T09:38:47;12.30;97.40
3705;DHT22;1868;48.918;9.438;2023-04-25T09:41:23;12.40;97.40
3705;DHT22;1868;48.918;9.438;2023-04-25T09:43:58;12.40;97.40
3705;DHT22;1868;48.918;9.438;2023-04-25T09:46:34;12.60;97.40
3705;DHT22;1868;48.918;9.438;2023-04-25T09:49:20;12.60;97.40
3705;DHT22;1868;48.918;9.438;2023-04-25T09:52:13;12.70;97.40
3705;DHT22;1868;48.918;9.438;2023-04-25T09:54:57;12.70;97.40
3705;DHT22;1868;48.918;9.438;2023-04-25T09:57:33;12.50;97.40
3705;DHT22;1868;48.918;9.438;2023-04-25T10:00:11;12.50;97.40
3705;DHT22;1868;48.918;9.438;2023-04-25T10:02:42;12.50;97.40
3705;DHT22;1868;48.918;9.438;2023-04-25T10:05:50;12.50;97.40
3705;DHT22;1868;48.918;9.438;2023-04-25T10:08:22;12.40;97.40
3705;DHT22;1868;48.918;9.438;2023-04-25T10:11:00;12.40;97.40
3705;DHT22;1868;48.918;9.438;2023-04-25T10:13:33;12.40;97.40
3705;DHT22;1868;48.918;9.438;2023-04-25T10:16:05;12.40;97.40
3705;DHT22;1868;48.918;9.438;2023-04-25T10:18:34;12.40;97.40
3705;DHT22;1868;48.918;9.438;2023-04-25T10:21:05;12.30;97.40
3705;DHT22;1868;48.918;9.438;2023-04-25T10:23:35;12.20;97.40
3705;DHT22;1868;48.918;9.438;2023-04-25T10:26:05;12.20;97.40
3705;DHT22;1868;48.918;9.438;2023-04-25T10:28:56;12.10;97.40
3705;DHT22;1868;48.918;9.438;2023-04-25T10:31:32;11.80;97.40
3705;DHT22;1868;48.918;9.438;2023-04-25T10:34:01;11.50;97.40
3705;DHT22;1868;48.918;9.438;2023-04-25T10:36:32;11.20;97.40
3705;DHT22;1868;48.918;9.438;2023-04-25T10:39:06;10.90;97.40
3705;DHT22;1868;48.918;9.438;2023-04-25T10:41:46;10.70;97.40
3705;DHT22;1868;48.918;9.438;2023-04-25T10:44:16;10.50;97.40
3705;DHT22;1868;48.918;9.438;2023-04-25T10:46:48;10.30;97.40
3705;DHT22;1868;48.918;9.438;2023-04-25T10:49:32;10.20;97.40
3705;DHT22;1868;48.918;9.438;2023-04-25T10:52:14;10.00;97.40
3705;DHT22;1868;48.918;9.438;2023-04-25T10:54:58;10.00;97.40
3705;DHT22;1868;48.918;9.438;2023-04-25T10:57:36;9.90;97.40
3705;DHT22;1868;48.918;9.438;2023-04-25T11:00:09;9.80;97.40
3705;DHT22;1868;48.918;9.438;2023-04-25T11:02:59;9.70;97.40
3705;DHT22;1868;48.918;9.438;2023-04-25T11:05:32;9.70;97.40
3705;DHT22;1868;48.918;9.438;2023-04-25T11:08:31;9.70;97.40
3705;DHT22;1868;48.918;9.438;2023-04-25T11:11:05;9.60;97.40
3705;DHT22;1868;48.918;9.438;2023-04-25T11:13:35;9.50;97.40
3705;DHT22;1868;48.918;9.438;2023-04-25T11:16:10;9.50;97.40
3705;DHT22;1868;48.918;9.438;2023-04-25T11:18:51;9.40;97.40
3705;DHT22;1868;48.918;9.438;2023-04-25T11:21:23;9.40;97.40
3705;DHT22;1868;48.918;9.438;2023-04-25T11:23:56;9.30;97.40
3705;DHT22;1868;48.918;9.438;2023-04-25T11:26:26;9.10;97.40
3705;DHT22;1868;48.918;9.438;2023-04-25T11:28:58;8.70;97.40
3705;DHT22;1868;48.918;9.438;2023-04-25T11:31:30;8.70;97.40
3705;DHT22;1868;48.918;9.438;2023-04-25T11:34:01;8.70;97.40
3705;DHT22;1868;48.918;9.438;2023-04-25T11:36:31;8.80;97.40
3705;DHT22;1868;48.918;9.438;2023-04-25T11:39:06;8.90;97.40
3705;DHT22;1868;48.918;9.438;2023-04-25T11:41:37;8.90;97.40
3705;DHT22;1868;48.918;9.438;2023-04-25T11:44:10;9.00;97.40
3705;DHT22;1868;48.918;9.438;2023-04-25T11:46:44;9.20;97.40
3705;DHT22;1868;48.918;9.438;2023-04-25T11:49:22;9.40;97.40
3705;DHT22;1868;48.918;9.438;2023-04-25T11:51:57;9.50;97.40
3705;DHT22;1868;48.918;9.438;2023-04-25T11:54:26;9.60;97.40
3705;DHT22;1868;48.918;9.438;2023-04-25T11:56:56;9.80;97.40
3705;DHT22;1868;48.918;9.438;2023-04-25T11:59:29;9.90;97.40
3705;DHT22;1868;48.918;9.438;2023-04-25T12:02:00;10.10;97.40
3705;DHT22;1868;48.918;9.438;2023-04-25T12:04:32;10.10;97.40
3705;DHT22;1868;48.918;9.438;2023-04-25T12:07:02;10.20;97.40
3705;DHT22;1868;48.918;9.438;2023-04-25T12:09:33;10.60;97.40
3705;DHT22;1868;48.918;9.438;2023-04-25T12:12:04;11.10;97.40
3705;DHT22;1868;48.918;9.438;2023-04-25T12:14:34;11.60;97.40
3705;DHT22;1868;48.918;9.438;2023-04-25T12:17:05;11.90;97.40
3705;DHT22;1868;48.918;9.438;2023-04-25T12:19:39;12.20;97.40
3705;DHT22;1868;48.918;9.438;2023-04-25T12:22:21;12.30;97.40
3705;DHT22;1868;48.918;9.438;2023-04-25T12:24:54;12.20;97.40
3705;DHT22;1868;48.918;9.438;2023-04-25T12:27:28;12.10;97.40
3705;DHT22;1868;48.918;9.438;2023-04-25T12:30:06;12.10;97.40
3705;DHT22;1868;48.918;9.438;2023-04-25T12:32:39;12.00;97.40
3705;DHT22;1868;48.918;9.438;2023-04-25T12:35:11;11.90;97.40
3705;DHT22;1868;48.918;9.438;2023-04-25T12:37:40;11.70;97.40
3705;DHT22;1868;48.918;9.438;2023-04-25T12:40:12;11.60;97.40
3705;DHT22;1868;48.918;9.438;2023-04-25T12:42:41;11.50;97.40
3705;DHT22;1868;48.918;9.438;2023-04-25T12:45:13;11.60;97.40
3705;DHT22;1868;48.918;9.438;2023-04-25T12:47:45;11.70;97.40
3705;DHT22;1868;48.918;9.438;2023-04-25T12:50:17;11.60;97.40
3705;DHT22;1868;48.918;9.438;2023-04-25T12:52:50;11.70;97.40
3705;DHT22;1868;48.918;9.438;2023-04-25T12:55:20;11.60;97.40
3705;DHT22;1868;48.918;9.438;2023-04-25T12:57:50;11.40;97.40
3705;DHT22;1868;48.918;9.438;2023-04-25T13:00:21;11.40;97.40
3705;DHT22;1868;48.918;9.438;2023-04-25T13:02:50;11.40;97.40
3705;DHT22;1868;48.918;9.438;2023-04-25T13:05:21;11.30;97.40
3705;DHT22;1868;48.918;9.438;2023-04-25T13:07:51;11.40;97.40
3705;DHT22;1868;48.918;9.438;2023-04-25T13:10:20;11.50;97.40
3705;DHT22;1868;48.918;9.438;2023-04-25T13:12:50;11.80;97.40
3705;DHT22;1868;48.918;9.438;2023-04-25T13:15:21;12.00;97.40
3705;DHT22;1868;48.918;9.438;2023-04-25T13:17:51;12.20;97.40
3705;DHT22;1868;48.918;9.438;2023-04-25T13:20:25;12.30;97.40
3705;DHT22;1868;48.918;9.438;2023-04-25T13:22:57;12.20;97.40
3705;DHT22;1868;48.918;9.438;2023-04-25T13:25:28;12.30;97.40
3705;DHT22;1868;48.918;9.438;2023-04-25T13:27:57;12.50;97.40
3705;DHT22;1868;48.918;9.438;2023-04-25T13:30:27;12.80;97.40
3705;DHT22;1868;48.918;9.438;2023-04-25T13:32:58;12.70;97.40
3705;DHT22;1868;48.918;9.438;2023-04-25T13:35:33;12.60;97.40
3705;DHT22;1868;48.918;9.438;2023-04-25T13:38:05;12.60;97.40
3705;DHT22;1868;48.918;9.438;2023-04-25T13:40:34;12.80;97.40
3705;DHT22;1868;48.918;9.438;2023-04-25T13:43:04;13.90;97.40
3705;DHT22;1868;48.918;9.438;2023-04-25T13:45:33;13.90;97.40
3705;DHT22;1868;48.918;9.438;2023-04-25T13:48:02;13.80;97.40
3705;DHT22;1868;48.918;9.438;2023-04-25T13:50:34;13.40;97.40
3705;DHT22;1868;48.918;9.438;2023-04-25T13:53:06;13.00;97.40
3705;DHT22;1868;48.918;9.438;2023-04-25T13:55:36;12.70;97.40
3705;DHT22;1868;48.918;9.438;2023-04-25T13:58:05;12.50;97.40
3705;DHT22;1868;48.918;9.438;2023-04-25T14:00:38;12.40;97.40
3705;DHT22;1868;48.918;9.438;2023-04-25T14:03:10;12.30;97.40
3705;DHT22;1868;48.918;9.438;2023-04-25T14:05:41;12.30;97.40
3705;DHT22;1868;48.918;9.438;2023-04-25T14:08:11;12.30;97.40
3705;DHT22;1868;48.918;9.438;2023-04-25T14:10:40;12.30;97.40
3705;DHT22;1868;48.918;9.438;2023-04-25T14:13:09;12.40;97.40
3705;DHT22;1868;48.918;9.438;2023-04-25T14:15:39;12.50;97.40
3705;DHT22;1868;48.918;9.438;2023-04-25T14:18:09;12.60;97.40
3705;DHT22;1868;48.918;9.438;2023-04-25T14:20:38;12.70;97.40
3705;DHT22;1868;48.918;9.438;2023-04-25T14:23:10;12.90;97.40
3705;DHT22;1868;48.918;9.438;2023-04-25T14:25:39;13.60;97.40
3705;DHT22;1868;48.918;9.438;2023-04-25T14:28:11;14.30;97.40
3705;DHT22;1868;48.918;9.438;2023-04-25T14:30:40;14.90;97.40
3705;DHT22;1868;48.918;9.438;2023-04-25T14:33:12;15.00;97.40
3705;DHT22;1868;48.918;9.438;2023-04-25T14:35:41;15.60;97.40
3705;DHT22;1868;48.918;9.438;2023-04-25T14:38:13;15.80;97.40
3705;DHT22;1868;48.918;9.438;2023-04-25T14:40:43;15.40;97.40
3705;DHT22;1868;48.918;9.438;2023-04-25T14:43:15;15.10;97.40
3705;DHT22;1868;48.918;9.438;2023-04-25T14:45:46;14.80;97.40
3705;DHT22;1868;48.918;9.438;2023-04-25T14:48:16;14.40;97.40
3705;DHT22;1868;48.918;9.438;2023-04-25T14:50:50;14.00;97.40
3705;DHT22;1868;48.918;9.438;2023-04-25T14:53:21;13.90;97.40
3705;DHT22;1868;48.918;9.438;2023-04-25T14:55:50;13.90;97.40
3705;DHT22;1868;48.918;9.438;2023-04-25T14:58:20;13.90;97.40
3705;DHT22;1868;48.918;9.438;2023-04-25T15:00:52;14.10;97.40
3705;DHT22;1868;48.918;9.438;2023-04-25T15:03:22;14.20;97.40
3705;DHT22;1868;48.918;9.438;2023-04-25T15:05:52;14.20;97.40
3705;DHT22;1868;48.918;9.438;2023-04-25T15:08:23;14.00;97.40
3705;DHT22;1868;48.918;9.438;2023-04-25T15:10:52;13.80;97.40
3705;DHT22;1868;48.918;9.438;2023-04-25T15:13:21;13.60;97.40
3705;DHT22;1868;48.918;9.438;2023-04-25T15:15:53;13.40;97.40
3705;DHT22;1868;48.918;9.438;2023-04-25T15:18:25;13.30;97.40
3705;DHT22;1868;48.918;9.438;2023-04-25T15:20:54;13.20;97.40
3705;DHT22;1868;48.918;9.438;2023-04-25T15:23:25;13.10;97.40
3705;DHT22;1868;48.918;9.438;2023-04-25T15:25:59;13.00;97.40
3705;DHT22;1868;48.918;9.438;2023-04-25T15:28:29;13.00;97.40
3705;DHT22;1868;48.918;9.438;2023-04-25T15:31:01;12.90;97.40
3705;DHT22;1868;48.918;9.438;2023-04-25T15:33:30;13.00;97.40
3705;DHT22;1868;48.918;9.438;2023-04-25T15:36:00;13.00;97.40
3705;DHT22;1868;48.918;9.438;2023-04-25T15:38:32;12.90;97.40
3705;DHT22;1868;48.918;9.438;2023-04-25T15:41:01;13.00;97.40
3705;DHT22;1868;48.918;9.438;2023-04-25T15:43:32;12.90;97.40
3705;DHT22;1868;48.918;9.438;2023-04-25T15:46:05;12.90;97.40
3705;DHT22;1868;48.918;9.438;2023-04-25T15:48:35;12.70;97.40
3705;DHT22;1868;48.918;9.438;2023-04-25T15:51:05;12.70;97.40
3705;DHT22;1868;48.918;9.438;2023-04-25T15:53:36;12.60;97.40
3705;DHT22;1868;48.918;9.438;2023-04-25T15:56:05;12.60;97.40
3705;DHT22;1868;48.918;9.438;2023-04-25T15:58:34;12.50;97.40
3705;DHT22;1868;48.918;9.438;2023-04-25T16:01:04;12.50;97.40
3705;DHT22;1868;48.918;9.438;2023-04-25T16:03:34;12.60;97.40
3705;DHT22;1868;48.918;9.438;2023-04-25T16:06:04;12.80;97.40
3705;DHT22;1868;48.918;9.438;2023-04-25T16:08:36;13.00;97.40
3705;DHT22;1868;48.918;9.438;2023-04-25T16:11:06;13.20;97.40
3705;DHT22;1868;48.918;9.438;2023-04-25T16:13:35;13.30;97.40
3705;DHT22;1868;48.918;9.438;2023-04-25T16:16:05;13.30;97.40
3705;DHT22;1868;48.918;9.438;2023-04-25T16:18:35;13.30;97.40
3705;DHT22;1868;48.918;9.438;2023-04-25T16:21:04;13.30;97.40
3705;DHT22;1868;48.918;9.438;2023-04-25T16:23:33;13.30;97.40
3705;DHT22;1868;48.918;9.438;2023-04-25T16:26:07;13.10;97.40
3705;DHT22;1868;48.918;9.438;2023-04-25T16:28:37;12.90;97.40
3705;DHT22;1868;48.918;9.438;2023-04-25T16:31:05;12.80;97.40
3705;DHT22;1868;48.918;9.438;2023-04-25T16:33:34;12.60;97.40
3705;DHT22;1868;48.918;9.438;2023-04-25T16:36:03;12.50;97.40
3705;DHT22;1868;48.918;9.438;2023-04-25T16:38:32;12.40;97.40
3705;DHT22;1868;48.918;9.438;2023-04-25T16:41:00;12.30;97.40
3705;DHT22;1868;48.918;9.438;2023-04-25T16:43:30;12.20;97.40
3705;DHT22;1868;48.918;9.438;2023-04-25T16:45:59;12.10;97.40
3705;DHT22;1868;48.918;9.438;2023-04-25T16:48:27;12.00;97.40
3705;DHT22;1868;48.918;9.438;2023-04-25T16:50:55;12.00;97.40
3705;DHT22;1868;48.918;9.438;2023-04-25T16:53:24;11.90;97.40